Frankfort, Kansas
Current Conditions -  °F | °C
As of 1:15 PM on Sunday 21 Dec 2014 (Local Time) from KMYZ Reporting Station
Overcast Overcast  
Wind Chill: 33°   Ceiling: 900
Heat Index: 41°   Visibility: 10mi
Dew Point: 37°   Wind: 14mph
Humidity: 87%   Direction: 200°SSW
Pressure: 29.79"   Gusts: 21mph
Location:  39.71°N, 96.42°W
Report Text: KMYZ 211915Z AUTO 20012G18KT 10SM OVC009 05/03 A2979 RMK AO2
Loading
Personal Weather Stations






























Interactive Weather Map New forecast layout! Learn more

10-Day Weather Forecast

Advertisements
Track Severe Weather on mobile